Time;durP1;ratioP1;P1;durP2;ratioP2;P2;SDS_P1;SDS_P2;PMS_P1;PMS_P2;Temp;Humidity;BMP_temperature;BMP_pressure;BME280_temperature;BME280_humidity;BME280_pressure;Samples;Min_cycle;Max_cycle;Signal;HPM_P1;HPM_P2
2023/12/24 00:00:47;;;;;;;0.98;0.75;;;11.70;99.90;;;;;;5032954;28;20476;-46
2023/12/24 00:03:13;;;;;;;0.82;0.60;;;11.70;99.90;;;;;;5033814;28;20056;-46
2023/12/24 00:05:38;;;;;;;1.23;0.80;;;11.70;99.90;;;;;;5032778;28;20502;-47
2023/12/24 00:08:04;;;;;;;1.40;0.68;;;11.70;99.90;;;;;;5033444;28;20021;-45
2023/12/24 00:10:30;;;;;;;0.82;0.50;;;11.70;99.90;;;;;;5032882;28;20041;-46
2023/12/24 00:12:55;;;;;;;0.98;0.73;;;11.70;99.90;;;;;;5032841;28;20026;-45
2023/12/24 00:15:21;;;;;;;0.90;0.65;;;11.70;99.90;;;;;;5032698;28;20030;-46
2023/12/24 00:17:47;;;;;;;0.88;0.50;;;11.70;99.90;;;;;;5032808;28;20029;-46
2023/12/24 00:20:12;;;;;;;1.02;0.70;;;11.70;99.90;;;;;;5031583;28;20483;-46
2023/12/24 00:22:38;;;;;;;1.55;0.60;;;11.70;99.90;;;;;;5032316;28;20521;-46
2023/12/24 00:25:04;;;;;;;0.80;0.60;;;11.70;99.90;;;;;;5032727;28;20037;-45
2023/12/24 00:27:30;;;;;;;0.55;0.50;;;11.70;99.90;;;;;;5032553;28;20068;-46
2023/12/24 00:29:55;;;;;;;0.65;0.40;;;11.70;99.90;;;;;;5032252;28;20426;-46
2023/12/24 00:32:21;;;;;;;0.98;0.70;;;11.70;99.90;;;;;;5032343;28;20104;-46
2023/12/24 00:34:47;;;;;;;0.55;0.40;;;11.70;99.90;;;;;;5032524;28;20017;-46
2023/12/24 00:37:12;;;;;;;0.82;0.50;;;11.70;99.90;;;;;;5032399;28;20037;-45
2023/12/24 00:39:38;;;;;;;0.70;0.45;;;11.70;99.90;;;;;;5032234;28;20029;-46
2023/12/24 00:42:04;;;;;;;0.68;0.50;;;11.70;99.90;;;;;;5032215;28;20148;-45
2023/12/24 00:44:29;;;;;;;0.93;0.50;;;11.70;99.90;;;;;;5031932;28;20112;-46
2023/12/24 00:46:55;;;;;;;0.57;0.50;;;11.70;99.90;;;;;;5032081;28;20104;-46
2023/12/24 00:49:21;;;;;;;1.17;0.60;;;11.70;99.90;;;;;;5032045;28;20025;-45
2023/12/24 00:51:47;;;;;;;1.10;0.50;;;11.70;99.90;;;;;;5032000;28;20021;-46
2023/12/24 00:54:13;;;;;;;0.82;0.43;;;11.70;99.90;;;;;;5031993;28;20021;-46
2023/12/24 00:56:38;;;;;;;0.80;0.60;;;11.70;99.90;;;;;;5032280;28;20036;-46
2023/12/24 00:59:04;;;;;;;0.70;0.50;;;11.70;99.90;;;;;;5031916;28;20399;-46
2023/12/24 01:01:30;;;;;;;0.68;0.40;;;11.70;99.90;;;;;;5031874;28;20503;-46
2023/12/24 01:03:55;;;;;;;0.55;0.47;;;11.70;99.90;;;;;;5032054;28;20480;-46
2023/12/24 01:06:21;;;;;;;0.77;0.50;;;11.70;99.90;;;;;;5031861;28;20033;-46
2023/12/24 01:08:47;;;;;;;1.50;0.40;;;11.70;99.90;;;;;;5031035;28;20484;-46
2023/12/24 01:11:12;;;;;;;0.60;0.40;;;11.70;99.90;;;;;;5030539;28;20041;-46
2023/12/24 01:13:38;;;;;;;0.95;0.50;;;11.70;99.90;;;;;;5031906;28;20057;-46
2023/12/24 01:16:04;;;;;;;1.10;0.50;;;11.70;99.90;;;;;;5031647;28;20518;-46
2023/12/24 01:18:30;;;;;;;0.63;0.38;;;11.70;99.90;;;;;;5031576;28;20029;-46
2023/12/24 01:20:56;;;;;;;0.40;0.40;;;11.70;99.90;;;;;;5031507;28;20030;-45
2023/12/24 01:23:22;;;;;;;0.65;0.40;;;11.70;99.90;;;;;;5031464;28;20503;-46
2023/12/24 01:25:48;;;;;;;0.52;0.43;;;11.70;99.90;;;;;;5031450;28;20029;-46
2023/12/24 01:28:14;;;;;;;0.85;0.60;;;11.70;99.90;;;;;;5032012;28;20444;-46
2023/12/24 01:30:40;;;;;;;1.35;0.50;;;11.70;99.90;;;;;;5031999;28;20387;-45
2023/12/24 01:33:06;;;;;;;1.10;0.50;;;11.70;99.90;;;;;;5031382;28;20029;-46
2023/12/24 01:35:32;;;;;;;0.65;0.40;;;11.70;99.90;;;;;;5031262;28;20033;-46
2023/12/24 01:37:57;;;;;;;0.75;0.40;;;11.70;99.90;;;;;;5031244;28;20480;-46
2023/12/24 01:40:23;;;;;;;0.47;0.38;;;11.70;99.90;;;;;;5031523;28;20037;-46
2023/12/24 01:42:49;;;;;;;0.35;0.35;;;11.70;99.90;;;;;;5031465;28;20534;-46
2023/12/24 01:45:14;;;;;;;0.80;0.45;;;11.70;99.90;;;;;;5031233;28;20813;-45
2023/12/24 01:47:42;;;;;;;0.70;0.50;;;11.70;99.90;;;;;;5031224;28;20438;-46
2023/12/24 01:50:09;;;;;;;0.70;0.35;;;11.60;99.90;;;;;;5031277;28;20028;-46
2023/12/24 01:52:35;;;;;;;0.95;0.52;;;11.60;99.90;;;;;;5031193;28;20104;-46
2023/12/24 01:55:01;;;;;;;0.40;0.40;;;11.60;99.90;;;;;;5031166;28;20033;-46
2023/12/24 01:57:30;;;;;;;1.08;0.30;;;11.70;99.90;;;;;;5031258;28;20029;-46
2023/12/24 01:59:57;;;;;;;1.05;0.50;;;11.70;99.90;;;;;;5031335;28;20030;-46
2023/12/24 02:02:27;;;;;;;0.52;0.40;;;11.70;99.90;;;;;;5031349;28;20021;-45
2023/12/24 02:04:53;;;;;;;1.05;0.45;;;11.70;99.90;;;;;;5031238;28;20646;-45
2023/12/24 02:07:19;;;;;;;0.50;0.30;;;11.70;99.90;;;;;;5030984;28;20034;-45
2023/12/24 02:09:45;;;;;;;0.70;0.40;;;11.70;99.90;;;;;;5030939;28;20032;-46
2023/12/24 02:12:10;;;;;;;0.55;0.47;;;11.70;99.90;;;;;;5030992;28;20105;-46
2023/12/24 02:14:36;;;;;;;0.45;0.32;;;11.60;99.90;;;;;;5031014;28;20108;-46
2023/12/24 02:17:04;;;;;;;0.50;0.40;;;11.60;99.90;;;;;;5030995;28;20037;-45
2023/12/24 02:19:30;;;;;;;0.75;0.30;;;11.70;99.90;;;;;;5031024;28;20029;-46
2023/12/24 02:21:55;;;;;;;0.65;0.40;;;11.70;99.90;;;;;;5030909;28;20037;-46
2023/12/24 02:24:21;;;;;;;0.55;0.40;;;11.60;99.90;;;;;;5031207;28;20032;-45
2023/12/24 02:27:13;;;;;;;0.68;0.50;;;11.70;99.90;;;;;;5031084;28;20618;-46
2023/12/24 02:29:46;;;;;;;0.85;0.45;;;11.70;99.90;;;;;;5020293;28;20045;-46
2023/12/24 02:32:16;;;;;;;0.30;0.30;;;11.60;99.90;;;;;;5031064;28;20025;-46
2023/12/24 02:34:45;;;;;;;0.68;0.30;;;11.60;99.90;;;;;;5030983;28;20032;-46
2023/12/24 02:37:12;;;;;;;0.57;0.40;;;11.70;99.90;;;;;;5030821;28;20100;-46
2023/12/24 02:39:38;;;;;;;0.43;0.30;;;11.60;99.90;;;;;;5030773;28;20037;-45
2023/12/24 02:42:06;;;;;;;0.50;0.40;;;11.60;99.90;;;;;;5030698;28;20028;-46
2023/12/24 02:44:31;;;;;;;0.60;0.43;;;11.70;99.90;;;;;;5032332;28;20109;-46
2023/12/24 02:46:57;;;;;;;0.80;0.32;;;11.60;99.90;;;;;;5034357;28;20029;-45
2023/12/24 02:49:22;;;;;;;0.50;0.30;;;11.60;99.90;;;;;;5034845;28;20536;-46
2023/12/24 02:51:48;;;;;;;1.75;0.40;;;11.60;99.90;;;;;;5034789;28;20029;-46
2023/12/24 02:54:14;;;;;;;1.05;0.43;;;11.60;99.90;;;;;;5034299;28;20025;-45
2023/12/24 02:56:39;;;;;;;0.98;0.50;;;11.60;99.90;;;;;;5033188;28;20507;-46
2023/12/24 02:59:05;;;;;;;0.93;0.40;;;11.60;99.90;;;;;;5034626;28;20411;-46
2023/12/24 03:01:31;;;;;;;0.30;0.30;;;11.60;99.90;;;;;;5034106;28;20038;-45
2023/12/24 03:03:58;;;;;;;0.85;0.40;;;11.60;99.90;;;;;;5034261;28;20079;-46
2023/12/24 03:06:23;;;;;;;0.90;0.43;;;11.60;99.90;;;;;;5034215;28;20112;-46
2023/12/24 03:08:49;;;;;;;0.55;0.40;;;11.70;99.90;;;;;;5034324;28;20108;-46
2023/12/24 03:11:15;;;;;;;0.40;0.30;;;11.60;99.90;;;;;;5033956;28;20049;-45
2023/12/24 03:13:40;;;;;;;0.60;0.40;;;11.70;99.90;;;;;;5033897;28;20025;-46
2023/12/24 03:16:06;;;;;;;0.43;0.32;;;11.60;99.90;;;;;;5033896;28;20033;-46
2023/12/24 03:18:32;;;;;;;0.60;0.40;;;11.60;99.90;;;;;;5033830;28;20113;-46
2023/12/24 03:20:59;;;;;;;0.50;0.40;;;11.60;99.90;;;;;;5033818;28;20025;-45
2023/12/24 03:23:25;;;;;;;0.32;0.30;;;11.60;99.90;;;;;;5033722;28;20384;-45
2023/12/24 03:25:50;;;;;;;0.80;0.43;;;11.60;99.90;;;;;;5033442;28;20032;-46
2023/12/24 03:28:16;;;;;;;0.70;0.40;;;11.60;99.90;;;;;;5033527;28;20033;-45
2023/12/24 03:30:42;;;;;;;0.25;0.25;;;11.70;99.90;;;;;;5033561;28;20476;-46
2023/12/24 03:33:07;;;;;;;0.65;0.30;;;11.60;99.90;;;;;;5033687;28;20037;-46
2023/12/24 03:35:34;;;;;;;0.30;0.30;;;11.60;99.90;;;;;;5033617;28;20446;-46
2023/12/24 03:37:59;;;;;;;0.52;0.20;;;11.60;99.90;;;;;;5033309;28;20025;-46
2023/12/24 03:40:25;;;;;;;0.65;0.30;;;11.60;99.90;;;;;;5033348;28;20136;-46
2023/12/24 03:42:51;;;;;;;0.73;0.40;;;11.60;99.90;;;;;;5033508;28;20086;-46
2023/12/24 03:45:16;;;;;;;0.40;0.35;;;11.60;99.90;;;;;;5033120;28;20038;-46
2023/12/24 03:47:42;;;;;;;0.47;0.30;;;11.60;99.90;;;;;;5033112;28;20037;-45
2023/12/24 03:50:08;;;;;;;0.60;0.40;;;11.60;99.90;;;;;;5033401;28;20491;-46
2023/12/24 03:52:33;;;;;;;0.63;0.30;;;11.60;99.90;;;;;;5033198;28;20416;-46
2023/12/24 03:54:59;;;;;;;0.30;0.30;;;11.60;99.90;;;;;;5033656;28;20025;-46
2023/12/24 03:57:24;;;;;;;0.40;0.35;;;11.60;99.90;;;;;;5032800;28;20048;-46
2023/12/24 03:59:50;;;;;;;0.52;0.40;;;11.60;99.90;;;;;;5032894;28;20029;-45
2023/12/24 04:02:15;;;;;;;0.30;0.30;;;11.60;99.90;;;;;;5032989;28;20033;-46
2023/12/24 04:04:47;;;;;;;0.60;0.40;;;11.60;99.90;;;;;;5033532;28;20025;-46
2023/12/24 04:07:15;;;;;;;0.35;0.30;;;11.60;99.90;;;;;;5033195;28;20491;-46
2023/12/24 04:09:42;;;;;;;0.55;0.30;;;11.60;99.90;;;;;;5032960;28;20021;-46
2023/12/24 04:12:08;;;;;;;1.23;0.40;;;11.60;99.90;;;;;;5032837;28;20013;-46
2023/12/24 04:14:38;;;;;;;0.38;0.30;;;11.60;99.90;;;;;;5032732;28;20018;-46
2023/12/24 04:17:05;;;;;;;0.77;0.50;;;11.60;99.90;;;;;;5032675;28;20037;-46
2023/12/24 04:19:30;;;;;;;0.40;0.38;;;11.60;99.90;;;;;;5032629;28;20029;-46
2023/12/24 04:21:56;;;;;;;0.80;0.40;;;11.60;99.90;;;;;;5032518;28;20431;-46
2023/12/24 04:24:22;;;;;;;1.38;0.50;;;11.60;99.90;;;;;;5033080;28;20125;-46
2023/12/24 04:26:48;;;;;;;0.30;0.20;;;11.60;99.90;;;;;;5032341;28;20034;-47
2023/12/24 04:29:13;;;;;;;0.77;0.57;;;11.60;99.90;;;;;;5032428;28;20026;-45
2023/12/24 04:31:39;;;;;;;0.50;0.40;;;11.60;99.90;;;;;;5032900;28;20037;-46
2023/12/24 04:34:08;;;;;;;0.47;0.40;;;11.60;99.90;;;;;;5032866;28;20097;-46
2023/12/24 04:36:34;;;;;;;0.30;0.30;;;11.60;99.90;;;;;;5032505;28;20467;-46
2023/12/24 04:39:01;;;;;;;0.75;0.35;;;11.60;99.90;;;;;;5032582;28;20479;-46
2023/12/24 04:41:28;;;;;;;0.43;0.30;;;11.60;99.90;;;;;;5032362;28;20483;-46
2023/12/24 04:43:57;;;;;;;0.47;0.40;;;11.60;99.90;;;;;;5032201;28;20108;-46
2023/12/24 04:46:22;;;;;;;0.75;0.30;;;11.60;99.90;;;;;;5032236;28;20148;-46
2023/12/24 04:48:48;;;;;;;0.40;0.40;;;11.60;99.90;;;;;;5032134;28;20484;-46
2023/12/24 04:51:14;;;;;;;0.75;0.30;;;11.60;99.90;;;;;;5032100;28;20083;-46
2023/12/24 04:53:40;;;;;;;0.40;0.30;;;11.60;99.90;;;;;;5031962;28;20029;-46
2023/12/24 04:56:06;;;;;;;0.50;0.30;;;11.70;99.90;;;;;;5031929;28;20168;-46
2023/12/24 04:58:31;;;;;;;0.85;0.30;;;11.70;99.90;;;;;;5031837;28;20056;-46
2023/12/24 05:00:57;;;;;;;0.45;0.43;;;11.70;99.90;;;;;;5031894;28;20127;-46
2023/12/24 05:03:23;;;;;;;0.40;0.30;;;11.80;99.90;;;;;;5031883;28;20034;-46
2023/12/24 05:05:49;;;;;;;0.40;0.40;;;11.80;99.90;;;;;;5031843;28;20164;-45
2023/12/24 05:08:14;;;;;;;0.73;0.43;;;11.80;99.90;;;;;;5031106;28;20424;-46
2023/12/24 05:10:41;;;;;;;0.90;0.40;;;11.80;99.90;;;;;;5031909;28;20546;-46
2023/12/24 05:13:06;;;;;;;0.35;0.20;;;11.90;99.90;;;;;;5031768;28;20017;-46
2023/12/24 05:15:32;;;;;;;0.50;0.32;;;11.90;99.90;;;;;;5031726;28;20087;-46
2023/12/24 05:17:57;;;;;;;0.88;0.47;;;11.90;99.90;;;;;;5031795;28;20021;-46
2023/12/24 05:20:23;;;;;;;0.50;0.40;;;11.90;99.90;;;;;;5031624;28;20037;-44
2023/12/24 05:22:49;;;;;;;0.35;0.30;;;11.90;99.90;;;;;;5031307;28;20450;-46
2023/12/24 05:25:15;;;;;;;0.32;0.30;;;12.00;99.90;;;;;;5031511;28;20017;-46
2023/12/24 05:27:41;;;;;;;1.85;0.30;;;12.00;99.90;;;;;;5031314;28;20026;-46
2023/12/24 05:30:07;;;;;;;0.80;0.40;;;12.00;99.90;;;;;;5031662;28;20013;-46
2023/12/24 05:32:33;;;;;;;0.52;0.30;;;12.00;99.90;;;;;;5031477;28;20025;-46
2023/12/24 05:34:59;;;;;;;0.55;0.32;;;12.00;99.90;;;;;;5031457;28;20483;-45
2023/12/24 05:37:24;;;;;;;0.50;0.40;;;12.00;99.90;;;;;;5031341;28;20029;-46
2023/12/24 05:39:50;;;;;;;0.52;0.35;;;12.00;99.90;;;;;;5031556;28;20500;-46
2023/12/24 05:42:16;;;;;;;0.38;0.30;;;12.00;99.90;;;;;;5031319;28;20028;-46
2023/12/24 05:44:41;;;;;;;0.40;0.30;;;12.00;99.90;;;;;;5031371;28;20476;-46
2023/12/24 05:47:07;;;;;;;0.50;0.40;;;12.00;99.90;;;;;;5031189;28;20036;-46
2023/12/24 05:49:33;;;;;;;0.85;0.50;;;12.10;99.90;;;;;;5031171;28;20488;-46
2023/12/24 05:51:59;;;;;;;0.55;0.30;;;12.00;99.90;;;;;;5031206;28;20026;-46
2023/12/24 05:54:24;;;;;;;0.50;0.40;;;12.00;99.90;;;;;;5031537;28;20503;-46
2023/12/24 05:56:50;;;;;;;0.20;0.20;;;12.10;99.90;;;;;;5031353;28;20046;-46
2023/12/24 05:59:16;;;;;;;0.22;0.20;;;12.00;99.90;;;;;;5031187;28;20025;-46
2023/12/24 06:01:43;;;;;;;0.40;0.30;;;12.00;99.90;;;;;;5030073;28;20025;-46
2023/12/24 06:04:08;;;;;;;0.45;0.30;;;12.00;99.90;;;;;;5031639;28;20071;-46
2023/12/24 06:06:40;;;;;;;0.30;0.30;;;12.10;99.90;;;;;;5031380;28;20034;-46
2023/12/24 06:09:06;;;;;;;0.40;0.30;;;12.00;99.90;;;;;;5031046;28;20030;-45
2023/12/24 06:11:32;;;;;;;0.40;0.20;;;12.00;99.90;;;;;;5031060;28;20029;-45
2023/12/24 06:13:58;;;;;;;0.40;0.30;;;12.00;99.90;;;;;;5031229;28;20357;-46
2023/12/24 06:16:24;;;;;;;1.10;0.40;;;12.00;99.90;;;;;;5031285;28;20040;-46
2023/12/24 06:18:49;;;;;;;0.40;0.30;;;12.00;99.90;;;;;;5031423;28;20794;-46
2023/12/24 06:21:15;;;;;;;0.40;0.40;;;12.00;99.90;;;;;;5034824;28;20029;-46
2023/12/24 06:23:40;;;;;;;0.38;0.30;;;12.00;99.90;;;;;;5034789;28;20041;-46
2023/12/24 06:26:06;;;;;;;0.32;0.30;;;12.00;99.90;;;;;;5034664;28;20026;-46
2023/12/24 06:28:32;;;;;;;0.20;0.20;;;12.00;99.90;;;;;;5035038;28;20026;-46
2023/12/24 06:30:59;;;;;;;0.32;0.28;;;12.00;99.90;;;;;;5034948;28;20013;-45
2023/12/24 06:33:25;;;;;;;0.22;0.22;;;12.00;99.90;;;;;;5034705;28;20060;-46
2023/12/24 06:35:50;;;;;;;0.20;0.15;;;12.00;99.90;;;;;;5034581;28;20068;-46
2023/12/24 06:38:16;;;;;;;0.50;0.22;;;12.00;99.90;;;;;;5034546;28;20503;-46
2023/12/24 06:40:42;;;;;;;0.20;0.20;;;12.00;99.90;;;;;;5034500;28;20021;-46
2023/12/24 06:43:08;;;;;;;0.35;0.30;;;12.00;99.90;;;;;;5034655;28;20029;-45
2023/12/24 06:45:34;;;;;;;0.47;0.30;;;12.00;99.90;;;;;;5034608;28;20021;-47
2023/12/24 06:48:02;;;;;;;0.40;0.20;;;12.00;99.90;;;;;;5034282;28;20040;-46
2023/12/24 06:50:28;;;;;;;0.30;0.17;;;11.90;99.90;;;;;;5034763;28;20022;-45
2023/12/24 06:52:54;;;;;;;0.22;0.22;;;12.00;99.90;;;;;;5033212;28;20025;-45
2023/12/24 06:55:20;;;;;;;0.57;0.40;;;11.90;99.90;;;;;;5034434;28;20018;-46
2023/12/24 06:57:45;;;;;;;0.30;0.30;;;11.90;99.90;;;;;;5034036;28;20017;-46
2023/12/24 07:00:12;;;;;;;0.52;0.28;;;11.90;99.90;;;;;;5034137;28;20037;-46
2023/12/24 07:02:37;;;;;;;1.25;0.40;;;11.90;99.90;;;;;;5034194;28;20036;-45
2023/12/24 07:05:03;;;;;;;0.50;0.40;;;11.90;99.90;;;;;;5034235;28;20101;-46
2023/12/24 07:07:29;;;;;;;0.70;0.40;;;11.90;99.90;;;;;;5034028;28;20026;-46
2023/12/24 07:09:54;;;;;;;0.47;0.28;;;11.90;99.90;;;;;;5034128;28;20434;-46
2023/12/24 07:12:21;;;;;;;0.50;0.30;;;11.90;99.90;;;;;;5034191;28;20496;-47
2023/12/24 07:14:46;;;;;;;0.70;0.20;;;11.90;99.90;;;;;;5034242;28;20079;-46
2023/12/24 07:17:12;;;;;;;0.43;0.25;;;11.90;99.90;;;;;;5034134;28;20026;-46
2023/12/24 07:19:38;;;;;;;0.30;0.20;;;11.90;99.90;;;;;;5033948;28;20025;-45
2023/12/24 07:22:03;;;;;;;0.57;0.30;;;11.90;99.90;;;;;;5033640;28;20453;-46
2023/12/24 07:24:29;;;;;;;0.25;0.20;;;11.90;99.90;;;;;;5033808;28;20525;-46
2023/12/24 07:26:55;;;;;;;0.20;0.20;;;11.90;99.90;;;;;;5033829;28;20163;-46
2023/12/24 07:29:21;;;;;;;0.20;0.10;;;11.90;99.90;;;;;;5033591;28;20154;-46
2023/12/24 07:31:47;;;;;;;0.57;0.30;;;11.90;99.90;;;;;;5032703;28;20022;-46
2023/12/24 07:34:13;;;;;;;0.30;0.22;;;11.90;99.90;;;;;;5033634;28;20493;-46
2023/12/24 07:36:38;;;;;;;0.13;0.13;;;11.90;99.90;;;;;;5033796;28;20037;-46
2023/12/24 07:39:04;;;;;;;0.20;0.20;;;11.90;99.90;;;;;;5033770;28;20033;-45
2023/12/24 07:41:31;;;;;;;0.98;0.30;;;11.90;99.90;;;;;;5033488;28;20487;-46
2023/12/24 07:43:57;;;;;;;0.43;0.30;;;11.90;99.90;;;;;;5033285;28;20056;-46
2023/12/24 07:46:22;;;;;;;0.65;0.32;;;11.80;99.90;;;;;;5033318;28;20064;-46
2023/12/24 07:48:48;;;;;;;0.60;0.30;;;11.80;99.90;;;;;;5033371;28;20072;-46
2023/12/24 07:51:15;;;;;;;0.60;0.40;;;11.80;99.90;;;;;;5033267;28;20494;-46
2023/12/24 07:53:40;;;;;;;0.38;0.30;;;11.80;99.90;;;;;;5034102;28;20025;-46
2023/12/24 07:56:07;;;;;;;0.50;0.30;;;11.80;99.90;;;;;;5033531;28;20388;-45
2023/12/24 07:58:33;;;;;;;0.85;0.30;;;11.80;99.90;;;;;;5033148;28;20112;-46
2023/12/24 08:00:58;;;;;;;0.30;0.30;;;11.80;99.90;;;;;;5033006;28;20120;-46
2023/12/24 08:03:24;;;;;;;0.88;0.40;;;11.80;99.90;;;;;;5033018;28;20044;-45
2023/12/24 08:05:50;;;;;;;1.15;0.30;;;11.80;99.90;;;;;;5032775;28;20112;-46
2023/12/24 08:08:15;;;;;;;0.85;0.35;;;11.80;99.90;;;;;;5032744;28;20033;-46
2023/12/24 08:10:41;;;;;;;0.73;0.22;;;11.80;99.90;;;;;;5032968;28;20052;-46
2023/12/24 08:13:06;;;;;;;0.50;0.35;;;11.80;99.90;;;;;;5033014;28;20060;-46
2023/12/24 08:15:32;;;;;;;1.10;0.50;;;11.80;99.90;;;;;;5023662;28;20065;-45
2023/12/24 08:17:58;;;;;;;0.45;0.30;;;11.80;99.90;;;;;;5027594;28;20052;-46
2023/12/24 08:20:23;;;;;;;0.30;0.30;;;11.90;99.90;;;;;;5017119;28;20018;-45
2023/12/24 08:22:49;;;;;;;0.40;0.20;;;11.90;99.90;;;;;;5026705;28;20662;-45
2023/12/24 08:25:15;;;;;;;0.35;0.20;;;11.90;99.90;;;;;;5021234;28;20057;-46
2023/12/24 08:27:41;;;;;;;0.60;0.30;;;11.90;99.90;;;;;;5021708;28;20022;-46
2023/12/24 08:30:08;;;;;;;0.50;0.20;;;11.90;99.90;;;;;;5023145;28;20037;-46
2023/12/24 08:32:34;;;;;;;0.40;0.22;;;11.90;99.90;;;;;;5021727;28;20400;-45
2023/12/24 08:34:59;;;;;;;0.85;0.30;;;12.00;99.90;;;;;;5023132;28;20033;-45
2023/12/24 08:37:25;;;;;;;0.57;0.40;;;12.00;99.90;;;;;;5028931;28;20036;-45
2023/12/24 08:39:51;;;;;;;2.20;0.20;;;12.10;99.90;;;;;;5014812;28;20117;-45
2023/12/24 08:42:16;;;;;;;0.47;0.28;;;12.10;99.90;;;;;;5020103;28;20028;-46
2023/12/24 08:44:42;;;;;;;0.25;0.20;;;12.10;99.90;;;;;;5025034;28;20032;-45
2023/12/24 08:47:08;;;;;;;0.68;0.30;;;12.20;99.90;;;;;;5016019;28;20033;-45
2023/12/24 08:49:33;;;;;;;0.30;0.30;;;12.20;99.90;;;;;;5013691;28;20080;-46
2023/12/24 08:51:59;;;;;;;0.98;0.30;;;12.30;99.90;;;;;;5029706;28;20434;-46
2023/12/24 08:54:25;;;;;;;0.73;0.28;;;12.30;99.90;;;;;;5030154;28;20028;-45
2023/12/24 08:56:50;;;;;;;1.08;0.30;;;12.30;99.90;;;;;;5031278;28;20025;-46
2023/12/24 08:59:16;;;;;;;0.55;0.30;;;12.40;99.90;;;;;;5029286;28;20029;-46
2023/12/24 09:01:41;;;;;;;1.08;0.20;;;12.40;99.90;;;;;;5028363;28;20480;-45
2023/12/24 09:04:07;;;;;;;0.52;0.30;;;12.40;99.90;;;;;;5030361;28;20033;-46
2023/12/24 09:06:33;;;;;;;0.68;0.30;;;12.50;99.90;;;;;;5031617;28;20052;-45
2023/12/24 09:08:59;;;;;;;0.70;0.57;;;12.50;99.90;;;;;;5032034;28;20496;-46
2023/12/24 09:11:25;;;;;;;1.08;0.60;;;12.60;99.90;;;;;;5030528;28;20034;-46
2023/12/24 09:13:50;;;;;;;0.50;0.40;;;12.60;99.90;;;;;;5031823;28;20022;-46
2023/12/24 09:16:16;;;;;;;0.57;0.40;;;12.60;99.90;;;;;;5031661;28;20025;-45
2023/12/24 09:18:41;;;;;;;0.30;0.30;;;12.70;99.90;;;;;;5031636;28;20021;-46
2023/12/24 09:21:07;;;;;;;0.40;0.25;;;12.80;99.90;;;;;;5031545;28;20395;-45
2023/12/24 09:23:33;;;;;;;0.63;0.30;;;12.80;99.90;;;;;;5031471;28;20040;-45
2023/12/24 09:25:58;;;;;;;0.32;0.20;;;12.80;99.90;;;;;;5031812;28;20037;-44
2023/12/24 09:28:24;;;;;;;0.80;0.25;;;12.80;99.90;;;;;;5031404;28;20033;-45
2023/12/24 09:30:50;;;;;;;0.10;0.10;;;12.90;99.90;;;;;;5031917;28;20021;-45
2023/12/24 09:33:16;;;;;;;0.60;0.20;;;13.00;99.90;;;;;;5032413;28;20047;-44
2023/12/24 09:35:43;;;;;;;0.28;0.20;;;13.00;99.90;;;;;;5031203;28;20033;-44
2023/12/24 09:38:12;;;;;;;0.10;0.10;;;13.00;99.90;;;;;;5031235;28;20021;-45
2023/12/24 09:40:38;;;;;;;0.30;0.30;;;13.10;99.90;;;;;;5031310;28;20021;-45
2023/12/24 09:43:04;;;;;;;0.50;0.30;;;13.10;99.90;;;;;;5031395;28;20104;-45
2023/12/24 09:45:32;;;;;;;0.38;0.30;;;13.10;99.90;;;;;;5031353;28;20037;-45
2023/12/24 09:47:58;;;;;;;1.05;0.30;;;13.20;99.90;;;;;;5031168;28;20028;-45
2023/12/24 09:50:23;;;;;;;0.55;0.35;;;13.20;99.90;;;;;;5031580;28;20481;-45
2023/12/24 09:52:49;;;;;;;0.13;0.10;;;13.30;99.90;;;;;;5031323;28;20017;-45
2023/12/24 09:55:14;;;;;;;0.40;0.40;;;13.30;99.90;;;;;;5037150;28;20434;-44
2023/12/24 09:57:40;;;;;;;0.38;0.20;;;13.40;99.90;;;;;;5037694;28;20051;-44
2023/12/24 10:00:09;;;;;;;0.30;0.20;;;13.40;99.90;;;;;;5038194;28;20368;-45
2023/12/24 10:02:34;;;;;;;0.25;0.25;;;13.50;99.90;;;;;;5037733;28;20025;-45
2023/12/24 10:05:03;;;;;;;0.45;0.30;;;13.50;99.90;;;;;;5037851;28;20021;-44
2023/12/24 10:07:39;;;;;;;0.57;0.32;;;13.50;99.90;;;;;;5036991;28;20387;-45
2023/12/24 10:10:08;;;;;;;0.38;0.30;;;13.60;99.90;;;;;;5037912;28;20040;-44
2023/12/24 10:12:34;;;;;;;0.38;0.30;;;13.60;99.90;;;;;;5037788;28;20021;-45
2023/12/24 10:15:00;;;;;;;0.68;0.38;;;13.70;99.90;;;;;;5038531;28;20538;-45
2023/12/24 10:17:29;;;;;;;0.32;0.30;;;13.70;99.90;;;;;;5037916;28;20471;-44
2023/12/24 10:19:59;;;;;;;0.47;0.28;;;13.70;99.90;;;;;;5037543;28;20025;-45
2023/12/24 10:22:25;;;;;;;0.43;0.30;;;13.80;99.90;;;;;;5037330;28;20064;-45
2023/12/24 10:25:05;;;;;;;0.57;0.30;;;13.80;99.90;;;;;;5037598;28;20025;-45
2023/12/24 10:27:31;;;;;;;0.75;0.40;;;13.90;99.90;;;;;;5036054;28;20033;-44
2023/12/24 10:30:14;;;;;;;0.32;0.20;;;13.90;99.90;;;;;;5037648;28;20025;-45
2023/12/24 10:32:42;;;;;;;0.63;0.30;;;13.90;99.90;;;;;;5037463;28;20022;-45
2023/12/24 10:35:08;;;;;;;0.50;0.30;;;14.00;99.90;;;;;;5037373;28;20083;-45
2023/12/24 10:37:34;;;;;;;0.50;0.25;;;14.00;99.90;;;;;;5037263;28;20026;-45
2023/12/24 10:40:08;;;;;;;0.22;0.20;;;14.10;99.90;;;;;;5037458;28;20103;-44
2023/12/24 10:42:37;;;;;;;;;;;14.10;99.90;;;;;;5037884;28;20071;-45
2023/12/24 10:45:07;;;;;;;0.40;0.40;;;14.10;99.90;;;;;;5037388;28;19996;-45
2023/12/24 10:47:34;;;;;;;0.35;0.30;;;14.20;99.90;;;;;;5037340;28;20082;-45
2023/12/24 10:50:00;;;;;;;0.20;0.20;;;14.20;99.90;;;;;;5037447;28;20502;-45
2023/12/24 10:52:26;;;;;;;0.60;0.30;;;14.20;99.90;;;;;;5037251;28;20030;-45
2023/12/24 10:54:53;;;;;;;0.45;0.20;;;14.20;99.90;;;;;;5037265;28;20021;-45
2023/12/24 10:58:01;;;;;;;1.27;0.40;;;14.30;99.90;;;;;;5037173;28;20029;-45
2023/12/24 11:00:27;;;;;;;0.30;0.22;;;14.30;99.90;;;;;;5037464;28;20379;-45
2023/12/24 11:02:53;;;;;;;0.40;0.40;;;14.30;99.90;;;;;;5037229;28;20091;-45
2023/12/24 11:05:42;;;;;;;0.75;0.35;;;14.40;99.90;;;;;;5036215;28;20025;-45
2023/12/24 11:08:19;;;;;;;0.60;0.30;;;14.40;99.90;;;;;;5034064;28;20026;-45
2023/12/24 11:10:52;;;;;;;0.35;0.20;;;14.40;99.90;;;;;;5034114;28;20108;-45
2023/12/24 11:13:34;;;;;;;0.50;0.30;;;14.40;99.90;;;;;;5034262;28;20025;-45
2023/12/24 11:16:01;;;;;;;1.05;0.35;;;14.40;99.90;;;;;;5033957;28;20018;-45
2023/12/24 11:18:48;;;;;;;0.30;0.20;;;14.40;99.90;;;;;;5033727;28;20052;-45
2023/12/24 11:21:22;;;;;;;0.22;0.20;;;14.50;99.90;;;;;;5033750;28;20076;-45
2023/12/24 11:24:12;;;;;;;1.88;0.50;;;14.50;99.90;;;;;;5033770;28;20025;-45
2023/12/24 11:26:48;;;;;;;1.00;0.32;;;14.50;99.90;;;;;;5033760;28;20037;-45
2023/12/24 11:29:48;;;;;;;1.25;0.35;;;14.50;99.90;;;;;;5034215;28;20502;-45
2023/12/24 11:32:26;;;;;;;0.57;0.20;;;14.50;99.90;;;;;;5033747;28;20018;-45
2023/12/24 11:34:55;;;;;;;0.50;0.32;;;14.50;99.90;;;;;;5033739;28;20032;-45
2023/12/24 11:37:33;;;;;;;0.43;0.22;;;14.60;99.90;;;;;;5034185;28;20025;-45
2023/12/24 11:40:05;;;;;;;0.30;0.20;;;14.60;99.90;;;;;;5033608;28;20109;-45
2023/12/24 11:42:44;;;;;;;0.50;0.30;;;14.60;99.90;;;;;;5033615;28;20031;-45
2023/12/24 11:45:29;;;;;;;0.50;0.40;;;14.60;99.90;;;;;;5033481;28;20290;-45
2023/12/24 11:47:55;;;;;;;;;;;14.60;99.90;;;;;;5033798;28;20562;-44
2023/12/24 11:50:21;;;;;;;0.40;0.20;;;14.60;99.90;;;;;;5033357;28;19988;-45
2023/12/24 11:52:48;;;;;;;0.22;0.10;;;14.60;99.90;;;;;;5033199;28;20044;-45
2023/12/24 11:55:21;;;;;;;0.40;0.30;;;14.70;99.90;;;;;;5033226;28;20511;-45
2023/12/24 11:57:50;;;;;;;0.40;0.20;;;14.70;99.90;;;;;;5033282;28;20029;-45
2023/12/24 12:00:24;;;;;;;0.20;0.20;;;14.70;99.90;;;;;;5033621;28;20113;-45
2023/12/24 12:02:58;;;;;;;0.68;0.40;;;14.70;99.90;;;;;;5033521;28;20047;-45
2023/12/24 12:05:24;;;;;;;0.20;0.20;;;14.80;99.90;;;;;;5033065;28;20739;-45
2023/12/24 12:07:50;;;;;;;0.50;0.38;;;14.80;99.90;;;;;;5032944;28;20022;-45
2023/12/24 12:10:17;;;;;;;0.60;0.25;;;14.80;99.90;;;;;;5033224;28;20067;-45
2023/12/24 12:12:43;;;;;;;0.73;0.40;;;14.80;99.90;;;;;;5033147;28;20037;-45
2023/12/24 12:15:10;;;;;;;0.52;0.20;;;14.80;99.90;;;;;;5032970;28;20021;-44
2023/12/24 12:17:36;;;;;;;0.20;0.20;;;14.90;99.90;;;;;;5032100;28;20422;-45
2023/12/24 12:20:02;;;;;;;0.90;0.30;;;14.90;99.90;;;;;;5032800;28;20104;-44
2023/12/24 12:22:28;;;;;;;0.57;0.20;;;14.90;99.90;;;;;;5032485;28;20523;-44
2023/12/24 12:24:54;;;;;;;0.50;0.30;;;14.90;99.90;;;;;;5032794;28;20053;-45
2023/12/24 12:27:19;;;;;;;0.40;0.30;;;14.90;99.90;;;;;;5032868;28;20071;-45
2023/12/24 12:29:45;;;;;;;0.38;0.20;;;14.90;99.90;;;;;;5032488;28;20087;-45
2023/12/24 12:32:11;;;;;;;0.65;0.30;;;15.00;99.90;;;;;;5032446;28;20025;-45
2023/12/24 12:34:38;;;;;;;0.40;0.38;;;15.00;99.90;;;;;;5032454;28;20053;-45
2023/12/24 12:37:04;;;;;;;0.50;0.38;;;15.00;99.90;;;;;;5032358;28;20029;-44
2023/12/24 12:39:30;;;;;;;0.40;0.30;;;15.00;99.90;;;;;;5032368;28;20379;-45
2023/12/24 12:41:57;;;;;;;1.48;0.20;;;15.00;99.90;;;;;;5032769;28;20039;-45
2023/12/24 12:44:23;;;;;;;0.40;0.30;;;15.00;99.90;;;;;;5032980;28;20411;-45
2023/12/24 12:46:49;;;;;;;0.30;0.20;;;15.00;99.90;;;;;;5032367;28;20036;-45